Date,TemperatureHighF,TemperatureAvgF,TemperatureLowF,DewpointHighF,DewpointAvgF,DewpointLowF,HumidityHigh,HumidityAvg,HumidityLow,PressureMaxIn,PressureMinIn,WindSpeedMaxMPH,WindSpeedAvgMPH,GustSpeedMaxMPH,PrecipitationSumIn
2013-10-1,50,48,47,47,45,45,91,90,86,0.00,40.00,0,0,1,0.00
2013-10-2,54,49,46,45,44,41,92,83,62,0.00,40.00,9,4,12,0.00
2013-10-3,47,46,45,44,42,42,91,85,81,0.00,40.00,12,6,21,0.00
2013-10-4,48,46,45,45,44,42,91,91,87,0.00,40.00,11,3,16,0.00
2013-10-5,50,47,44,45,44,42,92,89,77,0.00,40.00,11,4,15,0.00
2013-10-6,48,42,37,43,39,35,93,88,68,0.00,40.00,7,2,9,0.00
2013-10-7,52,44,38,43,40,36,92,86,63,0.00,40.00,7,2,10,0.00
2013-10-8,46,42,37,43,39,35,92,89,82,0.00,40.00,12,4,28,0.00
2013-10-9,48,45,43,45,42,37,92,86,69,0.00,40.00,12,5,34,0.00
2013-10-10,48,45,44,43,42,41,91,88,76,0.00,40.00,12,4,17,0.00
2013-10-11,46,45,44,43,42,42,92,90,84,0.00,40.00,9,3,13,0.00
2013-10-12,47,45,44,43,42,42,91,90,83,0.00,40.00,9,3,12,0.00
2013-10-14,45,45,45,43,43,43,89,89,89,0.00,40.00,6,6,12,0.00
2013-10-17,45,44,43,39,39,38,87,83,77,0.00,40.00,6,3,9,0.00
2013-10-18,46,44,43,42,40,39,90,87,82,0.00,40.00,9,5,15,0.00
2013-10-19,51,48,45,47,44,-100,92,88,82,0.00,40.00,11,7,17,0.00
2013-10-20,51,50,45,49,48,42,91,91,90,0.00,40.00,9,5,14,0.00
2013-10-21,49,43,36,43,40,34,92,89,76,0.00,40.00,5,1,7,0.00
2013-10-22,44,40,36,39,37,34,92,89,77,0.00,40.00,7,2,8,0.00
2013-10-23,54,45,41,48,42,39,92,89,75,0.00,40.00,17,4,26,0.00
2013-10-24,50,47,44,47,44,42,92,88,79,0.00,40.00,6,1,14,0.00
2013-10-25,49,48,47,46,45,44,91,90,87,0.00,40.00,7,4,13,0.00
2013-10-26,50,47,39,47,43,37,91,89,76,0.00,40.00,9,3,22,0.00
2013-10-27,44,40,36,40,37,35,92,89,73,0.00,40.00,6,1,11,0.00
2013-10-28,48,44,42,39,36,32,87,72,52,0.00,40.00,11,4,19,0.00
2013-10-29,46,45,43,42,40,36,90,84,71,0.00,40.00,13,5,27,0.00
2013-10-30,46,45,44,44,42,41,91,89,83,0.00,40.00,9,4,13,0.00
2013-10-31,46,44,41,44,42,39,92,91,87,0.00,40.00,7,2,14,0.00